Time;durP1;ratioP1;P1;durP2;ratioP2;P2;SDS_P1;SDS_P2;PMS_P1;PMS_P2;Temp;Humidity;BMP_temperature;BMP_pressure;BME280_temperature;BME280_humidity;BME280_pressure;Samples;Min_cycle;Max_cycle;Signal;HPM_P1;HPM_P2
2023/04/17 00:00:49;;;;;;;25.80;16.75;;;;;;;;;;4965398;28;20054;-92
2023/04/17 00:03:15;;;;;;;32.25;17.85;;;;;;;;;;4981119;28;20490;-93
2023/04/17 00:05:44;;;;;;;31.05;18.00;;;;;;;;;;4981543;28;20053;-92
2023/04/17 00:08:12;;;;;;;33.17;18.23;;;;;;;;;;4965469;28;20046;-93
2023/04/17 00:10:38;;;;;;;32.47;17.63;;;;;;;;;;4997479;28;20046;-94
2023/04/17 00:13:05;;;;;;;31.00;17.55;;;;;;;;;;4997498;28;20073;-93
2023/04/17 00:15:34;;;;;;;32.92;18.20;;;;;;;;;;4980891;28;20100;-94
2023/04/17 00:18:00;;;;;;;33.90;17.85;;;;;;;;;;4981313;28;20053;-94
2023/04/17 00:20:26;;;;;;;31.77;18.90;;;;;;;;;;4965451;28;20053;-94
2023/04/17 00:22:52;;;;;;;31.95;18.73;;;;;;;;;;4965557;28;20458;-94
2023/04/17 00:25:18;;;;;;;37.05;19.30;;;;;;;;;;4964435;28;20088;-91
2023/04/17 00:27:44;;;;;;;35.72;19.45;;;;;;;;;;4980330;28;20041;-90
2023/04/17 00:30:10;;;;;;;33.70;18.63;;;;;;;;;;4980160;28;20481;-90
2023/04/17 00:32:36;;;;;;;37.33;20.95;;;;;;;;;;4996201;28;20046;-91
2023/04/17 00:35:02;;;;;;;35.20;19.77;;;;;;;;;;4964053;28;20056;-89
2023/04/17 00:37:28;;;;;;;35.15;19.70;;;;;;;;;;4996052;28;20517;-90
2023/04/17 00:39:54;;;;;;;35.90;21.30;;;;;;;;;;4964117;28;20490;-90
2023/04/17 00:42:20;;;;;;;33.88;19.42;;;;;;;;;;4980286;28;20041;-89
2023/04/17 00:44:49;;;;;;;40.38;20.65;;;;;;;;;;4996256;28;20046;-89
2023/04/17 00:47:16;;;;;;;41.13;21.30;;;;;;;;;;4980570;28;20084;-89
2023/04/17 00:49:42;;;;;;;45.35;22.20;;;;;;;;;;4963986;28;20044;-89
2023/04/17 00:52:08;;;;;;;37.35;20.02;;;;;;;;;;4996365;28;20177;-90
2023/04/17 00:54:35;;;;;;;34.47;19.67;;;;;;;;;;4980377;28;20418;-90
2023/04/17 00:57:02;;;;;;;32.35;18.73;;;;;;;;;;4963493;28;20049;-90
2023/04/17 00:59:28;;;;;;;30.17;17.92;;;;;;;;;;4980158;28;20103;-90
2023/04/17 01:01:54;;;;;;;28.60;17.60;;;;;;;;;;4980567;28;20085;-89
2023/04/17 01:04:20;;;;;;;33.90;18.95;;;;;;;;;;4979782;28;20053;-88
2023/04/17 01:06:46;;;;;;;30.55;18.10;;;;;;;;;;4980088;28;20045;-91
2023/04/17 01:09:13;;;;;;;33.05;17.98;;;;;;;;;;4980118;28;20045;-89
2023/04/17 01:11:39;;;;;;;31.20;17.98;;;;;;;;;;4979807;28;20064;-90
2023/04/17 01:14:05;;;;;;;30.80;17.63;;;;;;;;;;4980062;28;20141;-89
2023/04/17 01:16:32;;;;;;;27.63;16.35;;;;;;;;;;4979732;28;20054;-89
2023/04/17 01:18:58;;;;;;;33.47;17.45;;;;;;;;;;4979473;28;20081;-89
2023/04/17 01:21:24;;;;;;;30.85;17.75;;;;;;;;;;4979827;28;20129;-90
2023/04/17 01:23:51;;;;;;;28.83;16.23;;;;;;;;;;4979509;28;20056;-90
2023/04/17 01:26:19;;;;;;;25.63;15.50;;;;;;;;;;4963315;28;20048;-90
2023/04/17 01:28:53;;;;;;;29.60;18.80;;;;;;;;;;4979474;28;20394;-89
2023/04/17 01:31:20;;;;;;;26.23;17.23;;;;;;;;;;4979587;28;20056;-90
2023/04/17 01:33:46;;;;;;;31.27;16.08;;;;;;;;;;4979259;28;20042;-90
2023/04/17 01:36:12;;;;;;;25.15;15.55;;;;;;;;;;4995630;28;20077;-91
2023/04/17 01:38:39;;;;;;;30.27;17.10;;;;;;;;;;4979168;28;20081;-90
2023/04/17 01:41:08;;;;;;;53.15;17.60;;;;;;;;;;4978982;28;20053;-90
2023/04/17 01:43:38;;;;;;;36.88;18.73;;;;;;;;;;4979362;28;20046;-89
2023/04/17 01:46:05;;;;;;;32.40;18.02;;;;;;;;;;4978994;28;20046;-89
2023/04/17 01:48:31;;;;;;;28.23;17.77;;;;;;;;;;4962608;28;20506;-89
2023/04/17 01:51:00;;;;;;;27.90;17.50;;;;;;;;;;4963257;28;20052;-89
2023/04/17 01:53:26;;;;;;;29.25;17.10;;;;;;;;;;4994881;28;20521;-89
2023/04/17 01:55:53;;;;;;;33.40;17.52;;;;;;;;;;4978787;28;20042;-89
2023/04/17 01:58:19;;;;;;;30.55;16.98;;;;;;;;;;4962264;28;20054;-90
2023/04/17 02:00:46;;;;;;;30.75;16.98;;;;;;;;;;4962646;28;20049;-89
2023/04/17 02:03:12;;;;;;;38.83;17.92;;;;;;;;;;4962628;28;20133;-89
2023/04/17 02:05:38;;;;;;;27.58;18.10;;;;;;;;;;4978909;28;20414;-89
2023/04/17 02:08:04;;;;;;;36.33;19.50;;;;;;;;;;4962996;28;20077;-89
2023/04/17 02:10:30;;;;;;;39.78;17.10;;;;;;;;;;4979080;28;20046;-91
2023/04/17 02:12:56;;;;;;;36.25;15.52;;;;;;;;;;4963214;28;20152;-88
2023/04/17 02:15:22;;;;;;;27.25;15.40;;;;;;;;;;4978896;28;20050;-89
2023/04/17 02:17:48;;;;;;;31.45;15.80;;;;;;;;;;4978601;28;20042;-89
2023/04/17 02:20:14;;;;;;;26.13;16.13;;;;;;;;;;4978925;28;20402;-88
2023/04/17 02:22:40;;;;;;;29.38;15.70;;;;;;;;;;4978515;28;20042;-88
2023/04/17 02:25:06;;;;;;;29.10;16.48;;;;;;;;;;4978631;28;20077;-91
2023/04/17 02:27:32;;;;;;;30.73;16.83;;;;;;;;;;4978838;28;20049;-88
2023/04/17 02:29:58;;;;;;;28.75;16.08;;;;;;;;;;4978876;28;20133;-89
2023/04/17 02:32:25;;;;;;;32.00;15.43;;;;;;;;;;4978966;28;20046;-88
2023/04/17 02:34:51;;;;;;;47.78;15.27;;;;;;;;;;4978788;28;20053;-89
2023/04/17 02:37:18;;;;;;;57.20;16.73;;;;;;;;;;4962679;28;20041;-91
2023/04/17 02:39:44;;;;;;;50.67;16.48;;;;;;;;;;4965594;28;20072;-90
2023/04/17 02:42:11;;;;;;;27.65;14.68;;;;;;;;;;4966638;28;20038;-89
2023/04/17 02:44:38;;;;;;;70.95;17.48;;;;;;;;;;4982200;28;20042;-91
2023/04/17 02:47:05;;;;;;;67.32;16.85;;;;;;;;;;4982442;28;20052;-90
2023/04/17 02:49:34;;;;;;;70.90;17.20;;;;;;;;;;4981847;28;20038;-89
2023/04/17 02:52:00;;;;;;;50.00;17.67;;;;;;;;;;4982345;28;20132;-90
2023/04/17 02:54:26;;;;;;;28.25;16.65;;;;;;;;;;4982266;28;20050;-90
2023/04/17 02:56:52;;;;;;;51.35;17.35;;;;;;;;;;4965806;28;20041;-91
2023/04/17 02:59:18;;;;;;;47.33;18.45;;;;;;;;;;4966284;28;20046;-91
2023/04/17 03:01:44;;;;;;;40.47;17.25;;;;;;;;;;4982028;28;20541;-91
2023/04/17 03:04:11;;;;;;;35.75;17.17;;;;;;;;;;4981867;28;20136;-90
2023/04/17 03:06:37;;;;;;;46.20;20.95;;;;;;;;;;4966118;28;20379;-89
2023/04/17 03:09:03;;;;;;;60.35;21.65;;;;;;;;;;4982105;28;20041;-92
2023/04/17 03:11:30;;;;;;;40.20;19.90;;;;;;;;;;4965445;28;20168;-89
2023/04/17 03:13:56;;;;;;;52.85;20.15;;;;;;;;;;4981409;28;20046;-89
2023/04/17 03:16:22;;;;;;;33.78;17.42;;;;;;;;;;4981624;28;20467;-90
2023/04/17 03:18:48;;;;;;;45.63;19.60;;;;;;;;;;4965924;28;20046;-90
2023/04/17 03:21:16;;;;;;;34.50;18.88;;;;;;;;;;4981322;28;20052;-89
2023/04/17 03:23:42;;;;;;;38.45;18.80;;;;;;;;;;4981795;28;20048;-91
2023/04/17 03:26:09;;;;;;;47.88;20.02;;;;;;;;;;4981316;28;20505;-90
2023/04/17 03:28:35;;;;;;;55.67;19.55;;;;;;;;;;4981495;28;20050;-90
2023/04/17 03:31:01;;;;;;;75.85;20.30;;;;;;;;;;4981011;28;20085;-88
2023/04/17 03:33:30;;;;;;;59.70;20.30;;;;;;;;;;4966211;28;20053;-91
2023/04/17 03:35:56;;;;;;;70.28;20.02;;;;;;;;;;4965506;28;20046;-89
2023/04/17 03:38:22;;;;;;;45.33;19.75;;;;;;;;;;4981425;28;20120;-90
2023/04/17 03:40:48;;;;;;;49.00;21.30;;;;;;;;;;4965225;28;20045;-89
2023/04/17 03:43:14;;;;;;;38.85;19.42;;;;;;;;;;4997253;28;20402;-91
2023/04/17 03:45:40;;;;;;;39.58;20.25;;;;;;;;;;4997109;28;20133;-90
2023/04/17 03:48:06;;;;;;;40.28;20.85;;;;;;;;;;4965515;28;20104;-90
2023/04/17 03:50:33;;;;;;;37.38;18.38;;;;;;;;;;4964746;28;20054;-90
2023/04/17 03:52:59;;;;;;;94.38;22.30;;;;;;;;;;4981001;28;20084;-91
2023/04/17 03:55:25;;;;;;;53.78;20.33;;;;;;;;;;4980947;28;20085;-91
2023/04/17 03:57:51;;;;;;;55.63;19.52;;;;;;;;;;4964369;28;20057;-91
2023/04/17 04:00:17;;;;;;;80.93;18.73;;;;;;;;;;4965119;28;20093;-91
2023/04/17 04:02:43;;;;;;;56.38;19.55;;;;;;;;;;4964745;28;20485;-91
2023/04/17 04:05:09;;;;;;;53.72;20.15;;;;;;;;;;4980912;28;20521;-91
2023/04/17 04:07:35;;;;;;;87.68;20.95;;;;;;;;;;4980667;28;20532;-90
2023/04/17 04:10:01;;;;;;;92.22;19.63;;;;;;;;;;4964466;28;20057;-91
2023/04/17 04:12:27;;;;;;;51.70;20.35;;;;;;;;;;4964531;28;20034;-91
2023/04/17 04:14:53;;;;;;;49.72;20.02;;;;;;;;;;4964650;28;20457;-91
2023/04/17 04:17:19;;;;;;;62.95;19.75;;;;;;;;;;4980756;28;20465;-90
2023/04/17 04:19:46;;;;;;;105.75;22.27;;;;;;;;;;4980268;28;20498;-91
2023/04/17 04:22:12;;;;;;;49.92;19.13;;;;;;;;;;4980333;28;20057;-90
2023/04/17 04:24:39;;;;;;;90.57;22.80;;;;;;;;;;4964265;28;20072;-91
2023/04/17 04:27:08;;;;;;;42.35;20.50;;;;;;;;;;4980318;28;20049;-91
2023/04/17 04:29:36;;;;;;;57.92;21.20;;;;;;;;;;4980599;28;20045;-91
2023/04/17 04:32:02;;;;;;;56.53;19.40;;;;;;;;;;4964676;28;20494;-90
2023/04/17 04:34:29;;;;;;;80.25;22.52;;;;;;;;;;4980225;28;20045;-91
2023/04/17 04:36:55;;;;;;;57.90;19.95;;;;;;;;;;4996510;28;20053;-91
2023/04/17 04:39:21;;;;;;;42.92;18.75;;;;;;;;;;4964629;28;20057;-91
2023/04/17 04:41:49;;;;;;;48.08;20.02;;;;;;;;;;4965227;28;20129;-91
2023/04/17 04:44:15;;;;;;;48.33;18.75;;;;;;;;;;4980806;28;20070;-92
2023/04/17 04:46:41;;;;;;;36.28;19.83;;;;;;;;;;4981612;28;20065;-90
2023/04/17 04:49:07;;;;;;;73.70;21.90;;;;;;;;;;4982841;28;20046;-89
2023/04/17 04:51:34;;;;;;;50.47;18.83;;;;;;;;;;4982620;28;20038;-91
2023/04/17 04:54:01;;;;;;;62.13;19.42;;;;;;;;;;4982103;28;20548;-90
2023/04/17 04:56:29;;;;;;;64.05;19.98;;;;;;;;;;4981829;28;20033;-91
2023/04/17 04:58:56;;;;;;;50.30;21.45;;;;;;;;;;4997144;28;20061;-92
2023/04/17 05:01:22;;;;;;;82.75;24.02;;;;;;;;;;4995676;28;20450;-92
2023/04/17 05:03:49;;;;;;;59.35;23.08;;;;;;;;;;4982325;28;20049;-93
2023/04/17 05:06:35;;;;;;;55.03;22.45;;;;;;;;;;4983420;28;20046;-92
2023/04/17 05:09:04;;;;;;;46.78;22.58;;;;;;;;;;4982292;28;20044;-93
2023/04/17 05:11:35;;;;;;;43.33;21.95;;;;;;;;;;4999098;28;20052;-92
2023/04/17 05:14:09;;;;;;;42.40;23.33;;;;;;;;;;4982793;28;20088;-93
2023/04/17 05:16:42;;;;;;;57.58;22.70;;;;;;;;;;4982452;28;20050;-93
2023/04/17 05:19:25;;;;;;;44.72;22.35;;;;;;;;;;4966660;28;20548;-93
2023/04/17 05:21:58;;;;;;;37.63;19.40;;;;;;;;;;4997963;28;20107;-92
2023/04/17 05:24:33;;;;;;;39.67;18.95;;;;;;;;;;4982126;28;20052;-92
2023/04/17 05:27:10;;;;;;;40.22;18.83;;;;;;;;;;4982123;28;20045;-90
2023/04/17 05:29:36;;;;;;;37.53;20.50;;;;;;;;;;4965447;28;20054;-91
2023/04/17 05:32:03;;;;;;;40.35;20.30;;;;;;;;;;4965189;28;20517;-90
2023/04/17 05:34:29;;;;;;;43.90;22.15;;;;;;;;;;4980993;28;20046;-90
2023/04/17 05:36:58;;;;;;;35.53;20.73;;;;;;;;;;4964552;28;20050;-90
2023/04/17 05:39:26;;;;;;;51.92;21.15;;;;;;;;;;4965273;28;20395;-93
2023/04/17 05:42:08;;;;;;;;;;;;;;;;;;;;;
2023/04/17 05:44:46;;;;;;;42.60;20.98;;;;;;;;;;4982317;28;20054;-91
2023/04/17 05:47:18;;;;;;;43.38;18.95;;;;;;;;;;4998011;28;20045;-92
2023/04/17 05:49:47;;;;;;;26.52;16.17;;;;;;;;;;4966307;28;20398;-91
2023/04/17 05:52:17;;;;;;;36.33;17.88;;;;;;;;;;4981635;28;20133;-93
2023/04/17 05:54:43;;;;;;;41.30;18.88;;;;;;;;;;4983206;28;20061;-93
2023/04/17 05:57:12;;;;;;;41.03;18.63;;;;;;;;;;4999353;28;20041;-92
2023/04/17 05:59:42;;;;;;;37.95;18.63;;;;;;;;;;4983353;28;20554;-93
2023/04/17 06:02:31;;;;;;;31.23;17.10;;;;;;;;;;4967558;28;20045;-92
2023/04/17 06:05:00;;;;;;;27.27;15.75;;;;;;;;;;4983887;28;20038;-92
2023/04/17 06:07:39;;;;;;;28.17;17.90;;;;;;;;;;4967075;28;20053;-93
2023/04/17 06:10:15;;;;;;;26.58;15.30;;;;;;;;;;4983537;28;20063;-93
2023/04/17 06:12:41;;;;;;;;;;;7.80;99.90;;;;;;4983888;28;20049;-92
2023/04/17 06:15:40;;;;;;;28.92;15.57;;;;;;;;;;5004132;28;19971;-93
2023/04/17 06:18:16;;;;;;;31.95;16.15;;;;;;;;;;4987808;28;20085;-93
2023/04/17 06:20:48;;;;;;;31.30;16.77;;;;;;;;;;4987078;28;20498;-93
2023/04/17 06:23:17;;;;;;;32.00;17.00;;;;;;;;;;4987364;28;20065;-92
2023/04/17 06:25:45;;;;;;;30.73;18.00;;;;;;;;;;4987195;28;20049;-92
2023/04/17 06:28:36;;;;;;;30.83;18.27;;;;;;;;;;5003143;28;20042;-92
2023/04/17 06:31:10;;;;;;;30.13;17.65;;;;;;;;;;4972341;28;20050;-93
2023/04/17 06:33:49;;;;;;;32.53;18.63;;;;;;;;;;4987439;28;20058;-92
2023/04/17 06:36:20;;;;;;;27.67;17.92;;;;;;;;;;4972152;28;20132;-92
2023/04/17 06:38:54;;;;;;;32.78;19.48;;;;;;;;;;5003331;28;20053;-94
2023/04/17 06:41:21;;;;;;;30.88;18.35;;;;;;;;;;4986710;28;20049;-92
2023/04/17 06:43:48;;;;;;;31.73;17.05;;;;;;;;;;5004008;28;20038;-93
2023/04/17 06:46:26;;;;;;;30.55;17.10;;;;;;;;;;4986879;28;20398;-92
2023/04/17 06:49:01;;;;;;;27.35;15.98;;;;;;;;;;4986915;28;20414;-93
2023/04/17 06:51:46;;;;;;;29.75;16.60;;;;;;;;;;4987793;28;20057;-93
2023/04/17 06:54:12;;;;;;;29.08;17.42;;;;;;;;;;4986699;28;20095;-93
2023/04/17 06:56:47;;;;;;;31.00;17.83;;;;;;;;;;4986582;28;20050;-94
2023/04/17 06:59:16;;;;;;;27.55;17.17;;;;;;;;;;4986822;28;20054;-93
2023/04/17 07:01:46;;;;;;;30.10;19.05;;;;;;;;;;5003389;28;20050;-92
2023/04/17 07:04:21;;;;;;;29.85;20.08;;;;;;;;;;4986910;28;20050;-92
2023/04/17 07:06:53;;;;;;;33.22;20.67;;;;;;;;;;4987517;28;20052;-94
2023/04/17 07:09:26;;;;;;;32.33;20.05;;;;;;;;;;4970549;28;20449;-93
2023/04/17 07:12:03;;;;;;;39.25;21.10;;;;;;;;;;4986979;28;20387;-94
2023/04/17 07:14:33;;;;;;;32.08;20.98;;;;;;;;;;4971870;28;20053;-94
2023/04/17 07:17:14;;;;;;;36.78;22.35;;;;;;;;;;4988079;28;20060;-92
2023/04/17 07:19:42;;;;;;;32.88;20.77;;;;;;;;;;4986664;28;20042;-94
2023/04/17 07:22:09;;;;;;;28.73;18.35;;;;;;;;;;4985903;28;20157;-93
2023/04/17 07:24:42;;;;;;;28.83;18.33;;;;;;;;;;4985115;28;20077;-93
2023/04/17 07:27:11;;;;;;;25.55;17.45;;;;;;;;;;4970547;28;20403;-93
2023/04/17 07:29:51;;;;;;;27.58;17.42;;;;;;;;;;4986081;28;20045;-93
2023/04/17 07:32:29;;;;;;;24.92;17.77;;;;;;;;;;4985975;28;20057;-93
2023/04/17 07:34:55;;;;;;;27.92;18.77;;;;;;;;;;4986772;28;20054;-91
2023/04/17 07:37:24;;;;;;;30.42;19.30;;;;;;;;;;4986144;28;20053;-93
2023/04/17 07:39:51;;;;;;;23.35;16.27;;;;;;;;;;5002943;28;20129;-92
2023/04/17 07:42:28;;;;;;;25.38;16.85;;;;;;;;;;5002368;28;20081;-93
2023/04/17 07:45:07;;;;;;;25.15;17.60;;;;;;;;;;4987476;28;20054;-93
2023/04/17 07:47:45;;;;;;;27.10;18.08;;;;;;;;;;4971159;28;20038;-93
2023/04/17 07:50:14;;;;;;;25.48;18.02;;;;;;;;;;4986451;28;20038;-93
2023/04/17 07:52:47;;;;;;;22.13;15.98;;;;;;;;;;4986553;28;20072;-93
2023/04/17 07:55:29;;;;;;;21.97;14.23;;;;;;;;;;4989665;28;20052;-93
2023/04/17 07:58:00;;;;;;;20.20;14.95;;;;;;;;;;4970529;28;20038;-93
2023/04/17 08:00:40;;;;;;;20.92;15.13;;;;;;;;;;5001949;28;20061;-93
2023/04/17 08:03:32;;;;;;;23.08;16.05;;;;;;;;;;4986800;28;20077;-94
2023/04/17 08:06:10;;;;;;;23.83;16.27;;;;;;;;;;4986342;28;20422;-93
2023/04/17 08:08:37;;;;;;;23.20;15.68;;;;;;;;;;4985297;28;20044;-93
2023/04/17 08:11:09;;;;;;;22.95;15.82;;;;;;;;;;4985950;28;20453;-94
2023/04/17 08:13:39;;;;;;;27.48;18.65;;;;;;;;;;5001420;28;20058;-92
2023/04/17 08:16:06;;;;;;;25.73;18.70;;;;;;;;;;4985916;28;20042;-91
2023/04/17 08:18:47;;;;;;;26.70;18.38;;;;;;;;;;4986107;28;20042;-93
2023/04/17 08:21:35;;;;;;;24.88;18.17;;;;;;;;;;4986160;28;20054;-93
2023/04/17 08:24:23;;;;;;;;;;;;;;;;;;;;;
2023/04/17 08:26:57;;;;;;;27.50;18.58;;;;;;;;;;5002324;28;20138;-91
2023/04/17 08:29:38;;;;;;;26.65;17.40;;;;;;;;;;4987527;28;20044;-93
2023/04/17 08:32:14;;;;;;;23.25;17.55;;;;;;;;;;4986818;28;20041;-91
2023/04/17 08:34:47;;;;;;;24.27;17.92;;;;;;;;;;4985521;28;20048;-92
2023/04/17 08:37:19;;;;;;;29.48;19.50;;;;;;;;;;4981950;28;20046;-91
2023/04/17 08:39:45;;;;;;;26.52;17.73;;;;;;;;;;4996182;28;20105;-91
2023/04/17 08:42:13;;;;;;;25.02;17.45;;;;;;;;;;4985527;28;20068;-92
2023/04/17 08:44:45;;;;;;;28.00;18.67;;;;;;;;;;4985361;28;20046;-91
2023/04/17 08:47:18;;;;;;;24.20;17.63;;;;;;;;;;4985517;28;20508;-93
2023/04/17 08:49:49;;;;;;;25.45;18.38;;;;;;;;;;4985328;28;20045;-93
2023/04/17 08:52:24;;;;;;;26.38;17.23;;;;;;;;;;4985011;28;20603;-93
2023/04/17 08:54:59;;;;;;;22.35;16.48;;;;;;;;;;4984617;28;20046;-92
2023/04/17 08:57:38;;;;;;;22.75;16.00;;;;;;;;;;4984735;28;20073;-93
2023/04/17 09:13:19;;;;;;;22.83;16.67;;;;;;;;;;4900006;29;20044;-92
2023/04/17 09:16:18;;;;;;;22.77;17.08;;;;;;;;;;4937178;29;20058;-93
2023/04/17 09:19:09;;;;;;;21.17;14.52;;;;;;;;;;5000924;28;20077;-92
2023/04/17 09:21:47;;;;;;;26.27;16.60;;;;;;;;;;4999857;28;20088;-94
2023/04/17 09:24:34;;;;;;;18.25;13.77;;;;;;;;;;4968286;28;20132;-94
2023/04/17 09:30:18;;;;;;;17.30;12.75;;;;;;;;;;4948477;28;20042;-92
2023/04/17 09:33:05;;;;;;;17.05;12.68;;;;;;;;;;4984141;28;20505;-92
2023/04/17 09:35:37;;;;;;;18.02;12.48;;;;;;;;;;5003205;28;20136;-94
2023/04/17 09:38:34;;;;;;;;;;;;;;;;;;;;;
2023/04/17 09:41:40;;;;;;;16.65;12.82;;;;;;;;;;5037451;28;20553;-93
2023/04/17 09:44:39;;;;;;;19.45;13.75;;;;;;;;;;5019380;28;20485;-94
2023/04/17 09:47:23;;;;;;;16.23;13.43;;;;;;;;;;5004809;28;20057;-93
2023/04/17 09:49:56;;;;;;;18.13;13.25;;;;;;;;;;5003380;28;20047;-93
2023/04/17 09:52:23;;;;;;;17.55;13.75;;;;;;;;;;5017642;28;20049;-90
2023/04/17 09:54:52;;;;;;;19.20;14.15;;;;;;;;;;5001082;28;20470;-90
2023/04/17 09:57:19;;;;;;;22.67;14.05;;;;;;;;;;5001098;28;20128;-91
2023/04/17 09:59:48;;;;;;;18.50;14.02;;;;;;;;;;5000625;28;20062;-89
2023/04/17 10:02:16;;;;;;;16.02;13.32;;;;;;;;;;5001396;28;20041;-89
2023/04/17 10:04:43;;;;;;;19.20;14.13;;;;;;;;;;5000796;28;20038;-92
2023/04/17 10:07:09;;;;;;;16.67;12.77;;;;;;;;;;5001458;28;20052;-90
2023/04/17 10:09:36;;;;;;;18.88;12.98;;;;;;;;;;5000852;28;20399;-90
2023/04/17 10:12:05;;;;;;;17.83;11.60;;;;;;;;;;5001136;28;20105;-90
2023/04/17 10:14:35;;;;;;;18.33;12.50;;;;;;;;;;5001103;28;20152;-89
2023/04/17 10:17:21;;;;;;;17.83;12.07;;;;;;;;;;5002309;23;20442;-89
2023/04/17 10:19:47;;;;;;;20.67;12.15;;;;;;;;;;4979609;28;20046;-90
2023/04/17 10:22:17;;;;;;;18.23;12.55;;;;;;;;;;4965751;28;20056;-90
2023/04/17 10:24:44;;;;;;;16.98;12.00;;;;;;;;;;4981217;28;20115;-89
2023/04/17 10:27:25;;;;;;;20.27;14.52;;;;;;;;;;4981111;28;20124;-89
2023/04/17 10:29:54;;;;;;;16.98;12.60;;;;;;;;;;4980879;28;20049;-89
2023/04/17 10:32:24;;;;;;;15.70;12.65;;;;;;;;;;4981115;28;20049;-89
2023/04/17 10:34:50;;;;;;;18.10;12.55;;;;;;;;;;4965320;28;20049;-90
2023/04/17 10:37:17;;;;;;;17.35;13.43;;;;;;;;;;4983020;28;20052;-93
2023/04/17 10:39:50;;;;;;;16.75;12.30;;;;;;;;;;4982420;28;20042;-94
2023/04/17 10:42:20;;;;;;;21.45;11.82;;;;;;;;;;4998456;28;20065;-93
2023/04/17 10:44:47;;;;;;;21.27;13.90;;;;;;;;;;4982661;28;20050;-95
2023/04/17 10:47:23;;;;;;;17.77;12.15;;;;;;;;;;4982726;28;20057;-93
2023/04/17 10:49:54;;;;;;;18.90;12.70;;;;;;;;;;4967010;28;20046;-93
2023/04/17 10:52:51;;;;;;;22.73;13.80;;;;;;;;;;5000052;28;20042;-94
2023/04/17 10:55:26;;;;;;;17.73;11.75;;;;;;;;;;4983337;28;20129;-92
2023/04/17 10:58:11;;;;;;;21.70;13.05;;;;;;;;;;4983710;28;20080;-93
2023/04/17 11:00:44;;;;;;;19.48;13.57;;;;;;;;;;4985328;28;20342;-94
2023/04/17 11:03:14;;;;;;;18.35;13.50;;;;;;;;;;5020356;28;20042;-93
2023/04/17 11:05:59;;;;;;;23.77;13.88;;;;;;;;;;5020121;28;20342;-94
2023/04/17 11:08:30;;;;;;;18.85;12.23;;;;;;;;;;5002408;28;20133;-94
2023/04/17 11:11:02;;;;;;;23.50;14.30;;;;;;;;;;4986275;28;20558;-93
2023/04/17 11:13:32;;;;;;;17.65;14.05;;;;;;;;;;4986390;28;20041;-94
2023/04/17 11:16:06;;;;;;;20.40;14.25;;;;;;;;;;4987428;28;20113;-93
2023/04/17 11:18:37;;;;;;;18.35;14.43;;;;;;;;;;5002266;28;20142;-94
2023/04/17 11:21:03;;;;;;;23.42;15.45;;;;;;;;;;4985920;28;20053;-91
2023/04/17 11:23:32;;;;;;;25.80;15.68;;;;;;;;;;4969992;28;20093;-94
2023/04/17 11:25:59;;;;;;;24.08;15.82;;;;;;;;;;4985448;28;20049;-94
2023/04/17 11:28:25;;;;;;;20.67;14.13;;;;;;;;;;4985775;28;20041;-93
2023/04/17 11:30:51;;;;;;;23.77;16.10;;;;;;;;;;5002111;28;20085;-93
2023/04/17 11:33:18;;;;;;;26.27;15.57;;;;;;;;;;4985506;28;20049;-94
2023/04/17 11:35:44;;;;;;;24.25;16.08;;;;;;;;;;5018982;28;20132;-94
2023/04/17 11:38:16;;;;;;;24.50;14.93;;;;;;;;;;4969546;28;20042;-92
2023/04/17 11:40:49;;;;;;;20.42;15.13;;;13.90;99.90;;;;;;4985305;28;20408;-94
2023/04/17 11:43:16;;;;;;;21.98;15.60;;;;;;;;;;4985862;28;20073;-94
2023/04/17 11:45:43;;;;;;;20.48;15.98;;;;;;;;;;4985342;28;20046;-93
2023/04/17 11:48:11;;;;;;;21.70;16.67;;;;;;;;;;4985531;28;20049;-93
2023/04/17 11:50:37;;;;;;;24.05;15.65;;;;;;;;;;4985674;28;20077;-93
2023/04/17 11:53:04;;;;;;;19.95;14.98;;;;;;;;;;5001879;28;20049;-95
2023/04/17 11:55:30;;;;;;;25.05;16.95;;;;;;;;;;5001537;28;20038;-93
2023/04/17 11:58:00;;;;;;;24.20;15.95;;;;;;;;;;4985311;28;20073;-94
2023/04/17 12:00:30;;;;;;;22.48;15.80;;;;;;;;;;5001613;28;20049;-94
2023/04/17 12:02:57;;;;;;;23.02;16.30;;;;;;;;;;4985552;28;20062;-92
2023/04/17 12:05:24;;;;;;;20.63;15.77;;;;;;;;;;4999856;28;20137;-89
2023/04/17 12:08:00;;;;;;;20.55;15.57;;;;;;;;;;5000004;28;20065;-90
2023/04/17 12:10:36;;;;;;;25.17;16.38;;;;;;;;;;4983125;28;20059;-91
2023/04/17 12:13:02;;;;;;;20.85;16.45;;;;;;;;;;5015467;28;20057;-89
2023/04/17 12:15:28;;;;;;;22.17;16.90;;;;;;;;;;4982222;28;20037;-89
2023/04/17 12:17:54;;;;;;;21.35;16.02;;;;;;;;;;4966184;28;20422;-93
2023/04/17 12:20:20;;;;;;;25.38;17.42;;;;;;;;;;4983533;28;20406;-95
2023/04/17 12:22:46;;;;;;;24.92;17.92;;;;;;;;;;4967761;28;20042;-94
2023/04/17 12:25:13;;;;;;;25.63;17.23;;;;;;;;;;4983159;28;20099;-93
2023/04/17 12:27:39;;;;;;;18.92;15.57;;;;;;;;;;4982642;28;20042;-95
2023/04/17 12:30:05;;;;;;;22.38;17.60;;;;;;;;;;4966140;28;20050;-90
2023/04/17 12:32:31;;;;;;;21.85;16.52;;;;;;;;;;4982155;28;20053;-94
2023/04/17 12:34:57;;;;;;;22.33;17.02;;;;;;;;;;4983143;28;20050;-90
2023/04/17 12:37:24;;;;;;;29.85;18.65;;;;;;;;;;4982633;28;20069;-93
2023/04/17 12:39:50;;;;;;;58.17;21.98;;;;;;;;;;4966634;28;20510;-94
2023/04/17 12:42:16;;;;;;;93.30;23.95;;;;;;;;;;4982744;28;20046;-95
2023/04/17 12:44:42;;;;;;;27.33;16.58;;;;;;;;;;4997230;28;20049;-91
2023/04/17 12:47:08;;;;;;;22.25;15.90;;;;;;;;;;4996661;28;20053;-90
2023/04/17 12:49:34;;;;;;;19.42;15.02;;;;;;;;;;4980953;28;20053;-89
2023/04/17 12:52:01;;;;;;;31.98;17.35;;;;;;;;;;4980536;28;20483;-89
2023/04/17 12:54:27;;;;;;;25.95;16.50;;;;;;;;;;4980928;28;20038;-89
2023/04/17 12:56:53;;;;;;;24.58;16.15;;;;;;;;;;4980609;28;20048;-92
2023/04/17 12:59:19;;;;;;;20.90;14.68;;;;;;;;;;4964681;28;20096;-89
2023/04/17 13:01:45;;;;;;;27.65;16.80;;;;;;;;;;4997006;28;20149;-91
2023/04/17 13:04:11;;;;;;;21.75;15.57;;;;;;;;;;4964836;28;20096;-90
2023/04/17 13:06:38;;;;;;;21.70;14.95;;;;;;;;;;4996386;28;20068;-92
2023/04/17 13:09:04;;;;;;;17.83;13.60;;;;;;;;;;4980591;28;20042;-90
2023/04/17 13:11:30;;;;;;;19.25;13.95;;;;;;;;;;4996588;28;20117;-90
2023/04/17 13:13:56;;;;;;;18.38;14.43;;;;;;;;;;4996912;28;20049;-91
2023/04/17 13:16:22;;;;;;;20.75;16.50;;;;;;;;;;4980192;28;20054;-90
2023/04/17 13:18:48;;;;;;;28.58;17.17;;;;;;;;;;4996104;28;20054;-88
2023/04/17 13:21:14;;;;;;;20.65;15.35;;;;;;;;;;4980155;28;20085;-89
2023/04/17 13:23:40;;;;;;;22.73;16.42;;;;;;;;;;4997438;28;20049;-92
2023/04/17 13:26:06;;;;;;;25.50;15.60;;;;;;;;;;4981799;28;20046;-91
2023/04/17 13:28:33;;;;;;;22.40;14.18;;;;;;;;;;4997913;28;20139;-94
2023/04/17 13:30:59;;;;;;;22.15;14.20;;;;;;;;;;4982443;28;20041;-93
2023/04/17 13:33:25;;;;;;;18.23;13.57;;;;;;;;;;4982774;28;20042;-94
2023/04/17 13:35:52;;;;;;;18.80;13.32;;;;;;;;;;4998942;28;20050;-94
2023/04/17 13:38:18;;;;;;;15.45;12.45;;;;;;;;;;4998677;28;20046;-94
2023/04/17 13:40:44;;;;;;;25.05;13.35;;;;;;;;;;4982301;28;20046;-92
2023/04/17 13:43:11;;;;;;;17.63;12.75;;;;;;;;;;4982253;28;20486;-95
2023/04/17 13:45:37;;;;;;;19.48;12.70;;;;;;;;;;4998118;28;20068;-96
2023/04/17 13:48:03;;;;;;;18.58;12.07;;;;;;;;;;4983495;28;20046;-94
2023/04/17 13:50:29;;;;;;;34.75;12.27;;;;;;;;;;4982459;28;20050;-95
2023/04/17 13:52:55;;;;;;;16.13;12.35;;;;;;;;;;4998773;28;20442;-96
2023/04/17 13:55:21;;;;;;;19.10;11.60;;;;;;;;;;4999354;28;20053;-94
2023/04/17 13:57:48;;;;;;;14.20;11.75;;;;;;;;;;4982832;28;20109;-94
2023/04/17 14:00:14;;;;;;;15.50;12.32;;;;;;;;;;4966217;28;20132;-95
2023/04/17 14:02:41;;;;;;;16.70;12.40;;;;;;;;;;4998747;28;20557;-93
2023/04/17 14:05:07;;;;;;;17.10;12.95;;;;;;;;;;4966571;28;20049;-96
2023/04/17 14:07:33;;;;;;;17.95;12.18;;;;;;;;;;4981892;28;20186;-89
2023/04/17 14:09:59;;;;;;;15.38;12.70;;;;;;;;;;4997284;28;20125;-89
2023/04/17 14:12:25;;;;;;;14.30;11.98;;;;;;;;;;5015086;28;20042;-94
2023/04/17 14:14:51;;;;;;;16.35;11.40;;;;;;;;;;5015352;28;20042;-92
2023/04/17 14:17:17;;;;;;;18.27;13.02;;;;;;;;;;4997120;28;20061;-94
2023/04/17 14:19:49;;;;;;;15.57;12.15;;;;;;;;;;4982740;28;20069;-93
2023/04/17 14:22:15;;;;;;;17.92;12.07;;;;;;;;;;4998052;28;20057;-93
2023/04/17 14:24:43;;;;;;;16.02;12.35;;;;;;;;;;5015499;28;20049;-91
2023/04/17 14:27:09;;;;;;;15.55;12.07;;;;;;;;;;4999047;28;20053;-92
2023/04/17 14:29:35;;;;;;;18.45;12.25;;;;;;;;;;4999327;28;20057;-92
2023/04/17 14:32:01;;;;;;;14.48;11.52;;;;;;;;;;4998750;28;20045;-92
2023/04/17 14:34:30;;;;;;;13.65;10.68;;;;;;;;;;4984739;28;20687;-92
2023/04/17 14:36:56;;;;;;;18.88;12.20;;;;;;;;;;5003435;28;20077;-89
2023/04/17 14:39:31;;;;;;;14.00;11.18;;;;;;;;;;4999716;28;20478;-94
2023/04/17 14:42:16;;;;;;;16.10;11.88;;;;;;;;;;4984550;28;20088;-94
2023/04/17 14:44:42;;;;;;;15.52;11.25;;;;;;;;;;4983163;28;20204;-88
2023/04/17 14:47:09;;;;;;;15.25;10.80;;;;;;;;;;4982860;28;20046;-89
2023/04/17 14:49:35;;;;;;;13.15;10.70;;;;;;;;;;4999489;28;20046;-88